Terminal Aerodrome Forecast
Issued by NWS

Home | Current Version | Previous Version | Text Only | Print | Product List | Glossary On
Versions: 1 2 3 4 5 6 7 8 9 10 11 12 13 14 15 16 17 18 19 20
678
FTUS43 KOAX 230904 AAA
TAFCDR
TAF AMD
KCDR 230904Z 2309/2406 04009KT P6SM VCSH SCT012 BKN018
     FM231800 03007KT 5SM -SHRA OVC012=

USA.gov is the U.S. government's official web portal to all federal, state and local government web resources and services.